| time (UTC) | temp C | wind direction | speed KPH | gust KPH | rain 1hr cm | rain 24hr cm | rain mn cm | humidity % | barometer mb |
| 20260503203356 | 21 | 353 | 6.4 | 6.4 | 0.00 | 0.03 | 0.03 | 43 | 1017.0 |
| 20260503202852 | 22 | 15 | 4.8 | 4.8 | 0.00 | 0.03 | 0.03 | 42 | 1017.0 |
| 20260503202351 | 22 | 18 | 6.4 | 6.4 | 0.00 | 0.03 | 0.03 | 42 | 1017.0 |
| 20260503201849 | 21 | 139 | 0.0 | 0.0 | 0.00 | 0.03 | 0.03 | 42 | 1017.0 |
| 20260503201345 | 21 | 7 | 4.8 | 4.8 | 0.00 | 0.03 | 0.03 | 42 | 1017.4 |
| 20260503200843 | 21 | 244 | 3.2 | 3.2 | 0.00 | 0.03 | 0.03 | 41 | 1017.4 |
| 20260503200338 | 21 | 38 | 4.8 | 6.4 | 0.00 | 0.03 | 0.03 | 41 | 1017.4 |
| 20260503195836 | 21 | 6 | 8.0 | 8.0 | 0.00 | 0.03 | 0.03 | 41 | 1017.7 |
| 20260503195332 | 21 | 270 | 3.2 | 3.2 | 0.00 | 0.03 | 0.03 | 41 | 1017.7 |
| 20260503194830 | 21 | 318 | 4.8 | 4.8 | 0.00 | 0.03 | 0.03 | 41 | 1017.7 |
| 20260503194326 | 21 | 334 | 8.0 | 9.7 | 0.00 | 0.03 | 0.03 | 43 | 1017.7 |
| 20260503193822 | 21 | 300 | 6.4 | 6.4 | 0.00 | 0.03 | 0.03 | 43 | 1017.7 |
| 20260503193318 | 21 | 49 | 6.4 | 8.0 | 0.00 | 0.03 | 0.03 | 44 | 1017.7 |
| 20260503192814 | 21 | 234 | 3.2 | 3.2 | 0.00 | 0.03 | 0.03 | 45 | 1018.1 |
| 20260503192309 | 21 | 167 | 3.2 | 3.2 | 0.00 | 0.03 | 0.03 | 46 | 1018.1 |
| 20260503191806 | 20 | 133 | 6.4 | 6.4 | 0.00 | 0.03 | 0.03 | 46 | 1018.1 |
| 20260503191303 | 20 | 42 | 4.8 | 4.8 | 0.00 | 0.03 | 0.03 | 47 | 1018.4 |
| 20260503190800 | 21 | 37 | 4.8 | 6.4 | 0.00 | 0.03 | 0.03 | 47 | 1018.4 |
| 20260503190257 | 20 | 278 | 3.2 | 3.2 | 0.00 | 0.03 | 0.03 | 47 | 1018.4 |
| 20260503185754 | 20 | 348 | 4.8 | 4.8 | 0.00 | 0.03 | 0.03 | 48 | 1018.4 |
| 20260503185250 | 20 | 234 | 0.0 | 0.0 | 0.00 | 0.03 | 0.03 | 50 | 1018.4 |
| 20260503184750 | 20 | 13 | 3.2 | 3.2 | 0.00 | 0.03 | 0.03 | 49 | 1018.4 |
| 20260503184247 | 20 | 184 | 0.0 | 0.0 | 0.00 | 0.03 | 0.03 | 48 | 1018.4 |
| 20260503183742 | 21 | 240 | 3.2 | 3.2 | 0.00 | 0.03 | 0.03 | 48 | 1018.4 |
| 20260503183240 | 20 | 90 | 0.0 | 0.0 | 0.00 | 0.03 | 0.03 | 48 | 1018.4 |
| 20260503182738 | 20 | 34 | 4.8 | 4.8 | 0.00 | 0.03 | 0.03 | 49 | 1018.7 |
| 20260503182237 | 20 | 312 | 3.2 | 3.2 | 0.00 | 0.03 | 0.03 | 49 | 1018.7 |
| 20260503181733 | 19 | 60 | 3.2 | 3.2 | 0.00 | 0.03 | 0.03 | 50 | 1018.7 |
| 20260503181230 | 19 | 152 | 0.0 | 0.0 | 0.00 | 0.03 | 0.03 | 49 | 1018.7 |
| 20260503180726 | 20 | 12 | 6.4 | 6.4 | 0.00 | 0.03 | 0.03 | 49 | 1018.7 |
| 20260503180225 | 20 | 336 | 3.2 | 3.2 | 0.00 | 0.03 | 0.03 | 50 | 1018.7 |
| 20260503175721 | 20 | 240 | 4.8 | 4.8 | 0.00 | 0.03 | 0.03 | 50 | 1019.1 |
| 20260503175219 | 20 | 37 | 3.2 | 3.2 | 0.00 | 0.03 | 0.03 | 50 | 1019.1 |
| 20260503174715 | 20 | 7 | 8.0 | 8.0 | 0.00 | 0.03 | 0.03 | 49 | 1019.1 |
| 20260503174213 | 20 | 342 | 8.0 | 8.0 | 0.00 | 0.03 | 0.03 | 50 | 1019.1 |
| 20260503173708 | 20 | 336 | 9.7 | 9.7 | 0.00 | 0.03 | 0.03 | 50 | 1019.1 |
| 20260503173204 | 20 | 216 | 9.7 | 9.7 | 0.00 | 0.03 | 0.03 | 51 | 1019.1 |
| 20260503172701 | 20 | 199 | 3.2 | 3.2 | 0.00 | 0.03 | 0.03 | 53 | 1019.1 |
| 20260503172158 | 20 | 90 | 0.0 | 0.0 | 0.00 | 0.03 | 0.03 | 52 | 1019.1 |
| 20260503171654 | 19 | 324 | 8.0 | 8.0 | 0.00 | 0.03 | 0.03 | 53 | 1019.1 |
| 20260503171152 | 19 | 59 | 6.4 | 6.4 | 0.00 | 0.03 | 0.03 | 53 | 1019.1 |
| 20260503170648 | 19 | 0 | 6.4 | 6.4 | 0.00 | 0.03 | 0.03 | 53 | 1019.1 |
| 20260503170145 | 20 | 20 | 4.8 | 4.8 | 0.00 | 0.03 | 0.03 | 54 | 1019.1 |
| 20260503160107 | 17 | 45 | 3.2 | 3.2 | 0.00 | 0.03 | 0.03 | 60 | 1019.8 |
| 20260503150537 | 16 | 353 | 0.0 | 0.0 | 0.00 | 0.03 | 0.03 | 69 | 1020.1 |
| 20260503130927 | 13 | 65 | 0.0 | 0.0 | 0.00 | 0.00 | 0.00 | 99 | 1019.4 |
| 20260503130425 | 12 | 72 | 0.0 | 0.0 | 0.00 | 0.00 | 0.00 | 99 | 1019.4 |
| 20260503110823 | 7 | 12 | 0.0 | 0.0 | 0.00 | 0.00 | 0.00 | 99 | 1018.1 |
| 20260503110320 | 6 | 12 | 0.0 | 0.0 | 0.00 | 0.00 | 0.00 | 99 | 1018.1 |
| 20260503100246 | 7 | 12 | 0.0 | 0.0 | 0.00 | 0.00 | 0.00 | 99 | 1017.4 |
| 20260503090206 | 8 | 15 | 0.0 | 0.0 | 0.00 | 0.00 | 0.00 | 99 | 1016.7 |
| 20260503081636 | 8 | 351 | 0.0 | 0.0 | 0.00 | 0.00 | 0.00 | 99 | 1016.4 |
| 20260503081133 | 8 | 45 | 0.0 | 0.0 | 0.00 | 0.00 | 0.00 | 99 | 1016.0 |
| 20260503080629 | 8 | 73 | 0.0 | 0.0 | 0.00 | 0.00 | 0.00 | 99 | 1016.0 |
| 20260503080126 | 8 | 73 | 0.0 | 0.0 | 0.00 | 0.00 | 0.00 | 99 | 1016.0 |
| 20260503072603 | 8 | 74 | 0.0 | 0.0 | 0.00 | 0.00 | 0.00 | 99 | 1015.7 |
| 20260503072100 | 9 | 74 | 0.0 | 0.0 | 0.00 | 0.00 | 0.00 | 99 | 1015.7 |
| 20260503071556 | 9 | 74 | 0.0 | 0.0 | 0.00 | 0.00 | 0.00 | 99 | 1015.7 |
| 20260503071053 | 9 | 74 | 0.0 | 0.0 | 0.00 | 0.00 | 0.00 | 99 | 1015.7 |
| 20260503070549 | 9 | 294 | 0.0 | 0.0 | 0.00 | 0.00 | 0.00 | 99 | 1015.7 |
| 20260503055003 | 10 | 12 | 0.0 | 0.0 | 0.00 | 0.00 | 0.00 | 99 | 1015.3 |
| 20260503054459 | 10 | 12 | 0.0 | 0.0 | 0.00 | 0.00 | 0.00 | 99 | 1015.3 |
| 20260503053956 | 10 | 12 | 0.0 | 0.0 | 0.00 | 0.00 | 0.00 | 99 | 1015.3 |
| 20260503053454 | 10 | 24 | 0.0 | 0.0 | 0.00 | 0.00 | 0.00 | 99 | 1015.3 |
| 20260503052951 | 10 | 25 | 0.0 | 0.0 | 0.00 | 0.00 | 0.00 | 99 | 1015.7 |
| 20260503052449 | 10 | 25 | 0.0 | 0.0 | 0.00 | 0.00 | 0.00 | 99 | 1015.7 |
| 20260503051944 | 10 | 22 | 0.0 | 0.0 | 0.00 | 0.00 | 0.00 | 99 | 1015.7 |
| 20260503051440 | 10 | 9 | 0.0 | 0.0 | 0.00 | 0.00 | 0.00 | 99 | 1015.3 |
| 20260503050938 | 11 | 354 | 0.0 | 0.0 | 0.00 | 0.00 | 0.00 | 99 | 1015.3 |
| 20260503050433 | 11 | 354 | 0.0 | 0.0 | 0.00 | 0.00 | 0.00 | 99 | 1015.3 |
| 20260503045932 | 11 | 354 | 0.0 | 0.0 | 0.00 | 0.00 | 0.00 | 99 | 1015.3 |
| 20260503045429 | 11 | 269 | 0.0 | 0.0 | 0.00 | 0.00 | 0.00 | 99 | 1015.3 |
| 20260503044925 | 11 | 342 | 0.0 | 0.0 | 0.00 | 0.00 | 0.00 | 99 | 1015.3 |
| 20260503044422 | 11 | 354 | 3.2 | 3.2 | 0.00 | 0.00 | 0.00 | 99 | 1015.0 |
| 20260503043920 | 11 | 12 | 0.0 | 0.0 | 0.00 | 0.00 | 0.00 | 99 | 1015.0 |
| 20260503043416 | 11 | 24 | 3.2 | 3.2 | 0.00 | 0.00 | 0.00 | 99 | 1015.0 |
| 20260503042913 | 11 | 17 | 0.0 | 0.0 | 0.00 | 0.00 | 0.00 | 99 | 1015.0 |
| 20260503042410 | 11 | 36 | 0.0 | 0.0 | 0.00 | 0.00 | 0.00 | 99 | 1015.0 |
| 20260503041906 | 11 | 12 | 0.0 | 0.0 | 0.00 | 0.00 | 0.00 | 99 | 1015.0 |
| 20260503041403 | 12 | 339 | 0.0 | 0.0 | 0.00 | 0.00 | 0.00 | 99 | 1014.7 |
| 20260503040900 | 12 | 0 | 0.0 | 0.0 | 0.00 | 0.00 | 0.00 | 99 | 1014.7 |
| 20260503040358 | 12 | 37 | 0.0 | 0.0 | 0.00 | 0.00 | 0.00 | 99 | 1014.7 |
| 20260503035854 | 12 | 12 | 3.2 | 3.2 | 0.00 | 2.21 | 2.21 | 99 | 1014.7 |
| 20260503035351 | 12 | 12 | 3.2 | 3.2 | 0.00 | 2.21 | 2.21 | 99 | 1014.7 |
| 20260503034848 | 12 | 24 | 0.0 | 0.0 | 0.00 | 2.21 | 2.21 | 99 | 1014.7 |
| 20260503034346 | 12 | 330 | 4.8 | 6.4 | 0.00 | 2.21 | 2.21 | 99 | 1014.3 |
| 20260503033843 | 12 | 348 | 3.2 | 3.2 | 0.00 | 2.21 | 2.21 | 99 | 1014.3 |
| 20260503033341 | 12 | 349 | 3.2 | 3.2 | 0.00 | 2.21 | 2.21 | 99 | 1014.3 |
| 20260503032838 | 12 | 24 | 4.8 | 4.8 | 0.00 | 2.21 | 2.21 | 99 | 1014.0 |
| 20260503032337 | 12 | 0 | 3.2 | 3.2 | 0.00 | 2.21 | 2.21 | 99 | 1014.0 |
| 20260503031834 | 12 | 323 | 3.2 | 3.2 | 0.00 | 2.21 | 2.21 | 99 | 1014.0 |
| 20260503031332 | 12 | 25 | 0.0 | 0.0 | 0.00 | 2.21 | 2.21 | 99 | 1013.7 |
| 20260503030828 | 12 | 23 | 0.0 | 0.0 | 0.00 | 2.21 | 2.21 | 99 | 1013.7 |
| 20260503030325 | 12 | 24 | 1.6 | 1.6 | 0.00 | 2.21 | 2.21 | 99 | 1013.7 |
| 20260503025821 | 12 | 17 | 0.0 | 0.0 | 0.00 | 2.21 | 2.21 | 99 | 1013.7 |
| 20260503025319 | 12 | 6 | 0.0 | 0.0 | 0.00 | 2.21 | 2.21 | 99 | 1013.7 |
| 20260503024815 | 12 | 345 | 3.2 | 3.2 | 0.00 | 2.21 | 2.21 | 99 | 1013.7 |
| 20260503024312 | 12 | 21 | 0.0 | 0.0 | 0.00 | 2.21 | 2.21 | 99 | 1013.3 |
| 20260503023809 | 12 | 4 | 0.0 | 0.0 | 0.00 | 2.21 | 2.21 | 99 | 1013.3 |
| 20260503023306 | 12 | 90 | 3.2 | 3.2 | 0.00 | 2.21 | 2.21 | 99 | 1013.3 |
| 20260503022802 | 12 | 10 | 3.2 | 3.2 | 0.00 | 2.21 | 2.21 | 99 | 1013.0 |
| 20260503022257 | 12 | 354 | 3.2 | 3.2 | 0.00 | 2.21 | 2.21 | 99 | 1013.0 |
| 20260503021754 | 12 | 48 | 0.0 | 0.0 | 0.00 | 2.21 | 2.21 | 99 | 1013.0 |
| 20260503021250 | 12 | 273 | 0.0 | 0.0 | 0.00 | 2.21 | 2.21 | 99 | 1013.0 |
| 20260503020748 | 12 | 354 | 3.2 | 3.2 | 0.00 | 2.21 | 2.21 | 99 | 1013.0 |
| 20260503020245 | 12 | 344 | 1.6 | 1.6 | 0.00 | 2.21 | 2.21 | 99 | 1013.0 |
| 20260503015741 | 12 | 108 | 0.0 | 0.0 | 0.00 | 2.21 | 2.21 | 99 | 1012.6 |
| 20260503015238 | 12 | 324 | 0.0 | 0.0 | 0.00 | 2.21 | 2.21 | 99 | 1012.6 |
| 20260503014734 | 12 | 354 | 0.0 | 0.0 | 0.00 | 2.21 | 2.21 | 99 | 1012.6 |
| 20260503014232 | 12 | 10 | 0.0 | 0.0 | 0.00 | 2.21 | 2.21 | 99 | 1012.6 |
| 20260503013729 | 12 | 17 | 0.0 | 0.0 | 0.00 | 2.21 | 2.21 | 99 | 1012.6 |
| 20260503013227 | 12 | 17 | 0.0 | 0.0 | 0.00 | 2.21 | 2.21 | 99 | 1012.6 |
| 20260503012724 | 12 | 102 | 0.0 | 0.0 | 0.00 | 2.21 | 2.21 | 99 | 1012.6 |
| 20260503012221 | 12 | 56 | 0.0 | 0.0 | 0.00 | 2.21 | 2.21 | 99 | 1012.6 |
| 20260503011717 | 13 | 17 | 0.0 | 0.0 | 0.00 | 2.21 | 2.21 | 99 | 1012.6 |
| 20260503011215 | 13 | 36 | 1.6 | 1.6 | 0.00 | 2.21 | 2.21 | 99 | 1012.6 |
| 20260503010710 | 13 | 23 | 0.0 | 0.0 | 0.00 | 2.21 | 2.21 | 99 | 1012.6 |
| 20260503010208 | 13 | 79 | 0.0 | 0.0 | 0.00 | 2.21 | 2.21 | 99 | 1012.6 |
| 20260503005705 | 13 | 15 | 3.2 | 3.2 | 0.00 | 2.21 | 2.21 | 99 | 1012.3 |
| 20260503005202 | 13 | 18 | 3.2 | 3.2 | 0.00 | 2.21 | 2.21 | 99 | 1012.3 |
| 20260503004658 | 13 | 24 | 0.0 | 0.0 | 0.00 | 2.21 | 2.21 | 99 | 1012.3 |
| 20260503004157 | 13 | 0 | 3.2 | 3.2 | 0.00 | 2.21 | 2.21 | 99 | 1012.0 |
| 20260503003654 | 13 | 335 | 3.2 | 3.2 | 0.00 | 2.21 | 2.21 | 99 | 1012.0 |
| 20260503003151 | 13 | 25 | 3.2 | 3.2 | 0.00 | 2.21 | 2.21 | 99 | 1012.0 |
| 20260503002647 | 13 | 12 | 1.6 | 1.6 | 0.00 | 2.21 | 2.21 | 99 | 1012.3 |
| 20260503002144 | 13 | 0 | 4.8 | 4.8 | 0.00 | 2.21 | 2.21 | 99 | 1012.3 |
| 20260503001640 | 13 | 47 | 3.2 | 3.2 | 0.00 | 2.21 | 2.21 | 99 | 1012.3 |
| 20260503001137 | 13 | 15 | 4.8 | 4.8 | 0.00 | 2.21 | 2.21 | 99 | 1011.6 |
| 20260503000635 | 13 | 4 | 3.2 | 3.2 | 0.00 | 2.21 | 2.21 | 99 | 1011.6 |
| 20260503000132 | 13 | 324 | 4.8 | 4.8 | 0.00 | 2.21 | 2.21 | 99 | 1011.6 |
| 20260502235628 | 13 | 6 | 0.0 | 0.0 | 0.00 | 2.21 | 2.21 | 99 | 1011.6 |
| 20260502235127 | 13 | 17 | 0.0 | 0.0 | 0.00 | 2.21 | 2.21 | 99 | 1011.6 |
| 20260502234622 | 13 | 53 | 0.0 | 0.0 | 0.00 | 2.21 | 2.21 | 99 | 1011.6 |
| 20260502234120 | 13 | 282 | 4.8 | 4.8 | 0.00 | 2.21 | 2.21 | 99 | 1011.3 |
| 20260502233616 | 13 | 18 | 0.0 | 0.0 | 0.00 | 2.21 | 2.21 | 99 | 1011.3 |
| 20260502233113 | 13 | 357 | 3.2 | 3.2 | 0.00 | 2.21 | 2.21 | 99 | 1011.3 |
| 20260502232608 | 13 | 338 | 3.2 | 3.2 | 0.00 | 2.21 | 2.21 | 99 | 1010.9 |
| 20260502232106 | 13 | 24 | 3.2 | 3.2 | 0.00 | 2.21 | 2.21 | 99 | 1010.9 |
| 20260502231603 | 13 | 16 | 3.2 | 3.2 | 0.00 | 2.21 | 2.21 | 99 | 1010.9 |
| 20260502231101 | 13 | 102 | 0.0 | 0.0 | 0.00 | 2.21 | 2.21 | 99 | 1010.9 |
| 20260502230558 | 13 | 355 | 4.8 | 4.8 | 0.00 | 2.21 | 2.21 | 99 | 1010.9 |
| 20260502230057 | 13 | 17 | 3.2 | 3.2 | 0.00 | 2.21 | 2.21 | 99 | 1010.9 |
| 20260502225552 | 13 | 344 | 3.2 | 3.2 | 0.03 | 2.21 | 2.21 | 99 | 1010.9 |
| 20260502225050 | 13 | 48 | 0.0 | 0.0 | 0.03 | 2.21 | 2.21 | 99 | 1010.9 |
| 20260502224545 | 13 | 12 | 3.2 | 3.2 | 0.03 | 2.21 | 2.21 | 99 | 1010.9 |
| 20260502224043 | 13 | 348 | 6.4 | 6.4 | 0.03 | 2.21 | 2.21 | 99 | 1010.9 |
| 20260502223540 | 13 | 198 | 1.6 | 1.6 | 0.03 | 2.21 | 2.21 | 99 | 1010.9 |
| 20260502223039 | 13 | 12 | 0.0 | 0.0 | 0.03 | 2.21 | 2.21 | 99 | 1010.9 |
| 20260502222535 | 13 | 355 | 3.2 | 3.2 | 0.03 | 2.21 | 2.21 | 99 | 1010.9 |
| 20260502222032 | 13 | 6 | 6.4 | 6.4 | 0.03 | 2.21 | 2.21 | 99 | 1010.9 |
| 20260502221527 | 13 | 6 | 0.0 | 0.0 | 0.03 | 2.21 | 2.21 | 99 | 1010.9 |
| 20260502221025 | 13 | 6 | 4.8 | 4.8 | 0.03 | 2.21 | 2.21 | 99 | 1010.9 |
| 20260502220520 | 13 | 300 | 3.2 | 3.2 | 0.03 | 2.21 | 2.21 | 99 | 1010.9 |
| 20260502220018 | 13 | 49 | 3.2 | 3.2 | 0.00 | 2.18 | 2.18 | 99 | 1010.3 |
| 20260502215515 | 13 | 6 | 6.4 | 6.4 | 0.00 | 2.18 | 2.18 | 99 | 1010.3 |
| 20260502215012 | 14 | 354 | 6.4 | 6.4 | 0.00 | 2.18 | 2.18 | 99 | 1010.3 |
| 20260502214509 | 13 | 102 | 3.2 | 3.2 | 0.00 | 2.18 | 2.18 | 99 | 1010.3 |
| 20260502214006 | 13 | 264 | 3.2 | 3.2 | 0.00 | 2.18 | 2.18 | 99 | 1010.3 |
| 20260502213503 | 13 | 342 | 1.6 | 1.6 | 0.00 | 2.18 | 2.18 | 99 | 1010.3 |
| 20260502213001 | 14 | 335 | 0.0 | 0.0 | 0.00 | 2.18 | 2.18 | 99 | 1009.9 |
| 20260502212459 | 14 | 0 | 4.8 | 4.8 | 0.00 | 2.18 | 2.18 | 99 | 1009.9 |
| 20260502211956 | 14 | 18 | 1.6 | 1.6 | 0.00 | 2.18 | 2.18 | 99 | 1009.9 |
| 20260502211452 | 14 | 23 | 3.2 | 3.2 | 0.00 | 2.18 | 2.18 | 99 | 1010.3 |
| 20260502210950 | 14 | 338 | 1.6 | 1.6 | 0.00 | 2.18 | 2.18 | 99 | 1010.3 |
| 20260502210446 | 13 | 35 | 0.0 | 0.0 | 0.00 | 2.18 | 2.18 | 99 | 1010.3 |
| 20260502205943 | 13 | 6 | 3.2 | 3.2 | 0.00 | 2.18 | 2.18 | 99 | 1009.9 |
| 20260502205439 | 13 | 24 | 4.8 | 4.8 | 0.00 | 2.18 | 2.18 | 99 | 1009.9 |
| 20260502204937 | 13 | 10 | 4.8 | 4.8 | 0.00 | 2.18 | 2.18 | 99 | 1009.9 |
| 20260502204433 | 13 | 61 | 3.2 | 3.2 | 0.00 | 2.18 | 2.18 | 99 | 1009.9 |
| 20260502203932 | 13 | 16 | 3.2 | 3.2 | 0.00 | 2.18 | 2.18 | 99 | 1009.9 |
| 20260502203429 | 13 | 6 | 0.0 | 0.0 | 0.00 | 2.18 | 2.18 | 99 | 1009.9 |